createdAt,value
2019-05-15T00:00:13.439Z,1.05
2019-05-15T00:02:43.058Z,1.05
2019-05-15T00:05:13.620Z,1.20
2019-05-15T00:07:43.126Z,1.10
2019-05-15T00:10:14.119Z,1.00
2019-05-15T00:12:43.481Z,1.20
2019-05-15T00:15:19.281Z,0.88
2019-05-15T00:17:48.687Z,1.00
2019-05-15T00:20:20.296Z,1.20
2019-05-15T00:22:54.810Z,1.10
2019-05-15T00:25:28.255Z,0.90
2019-05-15T00:31:00.435Z,0.80
2019-05-15T00:33:48.259Z,1.00
2019-05-15T00:36:19.265Z,1.07
2019-05-15T00:38:48.983Z,1.10
2019-05-15T00:41:29.115Z,0.82
2019-05-15T00:44:01.239Z,0.98
2019-05-15T00:46:42.409Z,1.17
2019-05-15T00:49:11.826Z,1.00
2019-05-15T00:51:45.665Z,1.15
2019-05-15T00:54:16.042Z,0.90
2019-05-15T00:56:45.606Z,1.00
2019-05-15T00:59:25.919Z,0.88
2019-05-15T01:01:53.876Z,0.93
2019-05-15T01:04:23.276Z,1.10
2019-05-15T01:06:54.867Z,1.12
2019-05-15T01:11:59.884Z,0.90
2019-05-15T01:14:29.291Z,0.70
2019-05-15T01:16:58.580Z,1.02
2019-05-15T01:19:32.358Z,0.72
2019-05-15T01:22:01.746Z,0.90
2019-05-15T01:24:31.464Z,0.90
2019-05-15T01:27:01.378Z,0.90
2019-05-15T01:29:41.842Z,0.82
2019-05-15T01:34:48.863Z,0.88
2019-05-15T01:37:18.750Z,0.80
2019-05-15T01:39:48.548Z,1.12
2019-05-15T01:42:40.699Z,0.80
2019-05-15T01:45:08.642Z,0.82
2019-05-15T01:47:44.491Z,0.70
2019-05-15T01:50:18.583Z,1.07
2019-05-15T01:52:48.271Z,0.80
2019-05-15T01:58:08.778Z,0.85
2019-05-15T02:00:39.136Z,0.90
2019-05-15T02:03:10.890Z,0.90
2019-05-15T02:08:42.518Z,0.82
2019-05-15T02:11:14.935Z,0.90
2019-05-15T02:13:44.451Z,0.82
2019-05-15T02:16:13.566Z,0.68
2019-05-15T02:18:43.014Z,0.70
2019-05-15T02:21:15.374Z,0.98
2019-05-15T02:23:44.583Z,1.00
2019-05-15T02:26:14.087Z,0.80
2019-05-15T02:28:59.803Z,0.60
2019-05-15T02:31:40.934Z,1.00
2019-05-15T02:34:13.361Z,0.70
2019-05-15T02:36:49.288Z,1.00
2019-05-15T02:39:23.600Z,0.90
2019-05-15T02:41:59.283Z,0.70
2019-05-15T02:47:52.217Z,0.70
2019-05-15T02:50:21.649Z,0.93
2019-05-15T02:52:51.123Z,0.90
2019-05-15T02:55:20.635Z,0.78
2019-05-15T02:57:50.164Z,0.78
2019-05-15T03:00:43.993Z,0.90
2019-05-15T03:03:21.498Z,0.72
2019-05-15T03:05:51.202Z,1.00
2019-05-15T03:08:20.999Z,0.90
2019-05-15T03:10:53.289Z,0.90
2019-05-15T03:13:39.170Z,0.93
2019-05-15T03:16:10.509Z,0.90
2019-05-15T03:18:49.824Z,0.80
2019-05-15T03:21:18.785Z,0.78
2019-05-15T03:23:59.419Z,0.90
2019-05-15T03:26:39.210Z,0.80
2019-05-15T03:29:42.839Z,0.78
2019-05-15T03:32:32.905Z,0.93
2019-05-15T03:35:03.737Z,0.80
2019-05-15T03:37:33.439Z,0.80
2019-05-15T03:40:03.212Z,0.82
2019-05-15T03:43:10.294Z,0.83
2019-05-15T03:45:40.731Z,0.90
2019-05-15T03:48:10.307Z,1.00
2019-05-15T03:50:40.816Z,0.82
2019-05-15T03:53:10.906Z,1.07
2019-05-15T03:55:43.550Z,0.98
2019-05-15T03:58:12.739Z,0.80
2019-05-15T04:00:42.047Z,0.95
2019-05-15T04:03:20.222Z,0.75
2019-05-15T04:06:09.975Z,1.07
2019-05-15T04:12:10.490Z,0.70
2019-05-15T04:14:39.978Z,0.88
2019-05-15T04:17:09.344Z,0.85
2019-05-15T04:19:51.713Z,1.00
2019-05-15T04:22:21.035Z,1.00
2019-05-15T04:25:22.141Z,0.70
2019-05-15T04:27:51.752Z,1.00
2019-05-15T04:36:10.973Z,1.00
2019-05-15T04:38:41.738Z,0.78
2019-05-15T04:41:29.661Z,0.90
2019-05-15T04:43:59.791Z,0.70
2019-05-15T04:46:29.913Z,0.82
2019-05-15T04:49:02.391Z,0.90
2019-05-15T04:51:32.040Z,1.00
2019-05-15T04:54:01.471Z,0.90
2019-05-15T04:56:31.153Z,0.95
2019-05-15T04:59:05.579Z,0.68
2019-05-15T05:01:44.014Z,0.90
2019-05-15T05:04:13.399Z,0.98
2019-05-15T05:06:42.685Z,0.82
2019-05-15T05:09:12.156Z,0.90
2019-05-15T05:11:43.575Z,0.90
2019-05-15T05:14:32.369Z,0.78
2019-05-15T05:17:03.754Z,1.32
2019-05-15T05:19:35.602Z,1.45
2019-05-15T05:22:07.837Z,1.57
2019-05-15T05:24:38.515Z,1.60
2019-05-15T05:27:08.735Z,1.70
2019-05-15T05:29:38.650Z,2.00
2019-05-15T05:32:43.959Z,2.02
2019-05-15T05:35:18.522Z,1.70
2019-05-15T05:37:48.327Z,1.70
2019-05-15T05:40:34.144Z,1.77
2019-05-15T05:43:03.548Z,1.67
2019-05-15T05:45:44.538Z,2.00
2019-05-15T05:48:14.482Z,1.90
2019-05-15T05:50:44.570Z,2.10
2019-05-15T05:53:24.569Z,1.70
2019-05-15T05:55:54.546Z,1.55
2019-05-15T05:58:24.643Z,1.55
2019-05-15T06:00:58.575Z,1.80
2019-05-15T06:03:24.937Z,1.40
2019-05-15T06:05:54.029Z,1.50
2019-05-15T06:08:23.506Z,1.55
2019-05-15T06:10:52.731Z,1.50
2019-05-15T06:13:22.082Z,3.10
2019-05-15T06:15:51.384Z,3.70
2019-05-15T06:18:20.579Z,3.15
2019-05-15T06:20:50.020Z,3.10
2019-05-15T06:23:24.897Z,3.62
2019-05-15T06:25:55.990Z,3.08
2019-05-15T06:28:28.966Z,3.58
2019-05-15T06:31:00.797Z,4.42
2019-05-15T06:33:40.699Z,4.65
2019-05-15T06:36:17.991Z,4.05
2019-05-15T06:38:51.643Z,3.98
2019-05-15T06:41:21.513Z,3.42
2019-05-15T06:43:53.675Z,3.40
2019-05-15T06:46:28.014Z,3.37
2019-05-15T06:48:59.391Z,3.17
2019-05-15T06:51:31.772Z,3.50
2019-05-15T06:54:04.184Z,3.08
2019-05-15T06:56:38.868Z,2.95
2019-05-15T06:59:09.236Z,3.10
2019-05-15T07:01:41.461Z,2.92
2019-05-15T07:04:14.040Z,2.87
2019-05-15T07:06:50.715Z,3.02
2019-05-15T07:09:35.003Z,3.00
2019-05-15T07:12:08.562Z,2.22
2019-05-15T07:14:39.868Z,2.52
2019-05-15T07:17:09.439Z,2.40
2019-05-15T07:19:50.916Z,2.52
2019-05-15T07:22:18.219Z,2.60
2019-05-15T07:24:47.901Z,2.90
2019-05-15T07:27:22.471Z,2.37
2019-05-15T07:29:52.533Z,2.37
2019-05-15T07:32:34.668Z,2.33
2019-05-15T07:35:16.022Z,1.97
2019-05-15T07:37:47.757Z,2.20
2019-05-15T07:40:19.306Z,2.10
2019-05-15T07:42:58.578Z,1.90
2019-05-15T07:45:43.785Z,1.62
2019-05-15T07:48:11.255Z,1.50
2019-05-15T07:50:49.537Z,1.67
2019-05-15T07:53:25.610Z,1.30
2019-05-15T07:56:24.082Z,1.65
2019-05-15T07:59:41.471Z,1.50
2019-05-15T08:01:58.158Z,1.00
2019-05-15T08:04:32.941Z,1.20
2019-05-15T08:07:09.107Z,1.32
2019-05-15T08:13:10.635Z,1.20
2019-05-15T08:15:44.644Z,1.30
2019-05-15T08:18:48.859Z,1.12
2019-05-15T08:21:58.278Z,1.25
2019-05-15T08:24:29.837Z,1.20
2019-05-15T08:28:57.963Z,1.10
2019-05-15T08:30:01.902Z,1.07
2019-05-15T08:32:31.502Z,0.98
2019-05-15T08:35:24.133Z,1.40
2019-05-15T08:38:03.630Z,1.02
2019-05-15T08:43:48.881Z,0.90
2019-05-15T08:46:19.452Z,0.80
2019-05-15T08:53:08.372Z,0.88
2019-05-15T08:55:43.828Z,1.00
2019-05-15T09:04:34.913Z,0.85
2019-05-15T09:07:12.066Z,0.90
2019-05-15T09:09:45.253Z,1.07
2019-05-15T09:12:20.719Z,1.00
2019-05-15T09:15:07.751Z,0.90
2019-05-15T09:18:14.832Z,0.80
2019-05-15T09:20:38.157Z,1.05
2019-05-15T09:23:05.873Z,1.00
2019-05-15T09:25:38.833Z,0.80
2019-05-15T09:28:10.615Z,1.07
2019-05-15T09:31:08.347Z,0.98
2019-05-15T09:33:38.777Z,1.00
2019-05-15T09:36:09.108Z,0.90
2019-05-15T09:38:39.252Z,1.12
2019-05-15T09:41:09.155Z,0.95
2019-05-15T09:43:40.583Z,0.90
2019-05-15T09:46:10.370Z,1.02
2019-05-15T09:48:39.844Z,0.90
2019-05-15T09:51:33.602Z,0.90
2019-05-15T09:57:49.092Z,0.95
2019-05-15T10:00:52.185Z,0.88
2019-05-15T10:03:48.582Z,0.90
2019-05-15T10:06:20.585Z,0.98
2019-05-15T10:09:12.468Z,1.05
2019-05-15T10:15:19.367Z,1.07
2019-05-15T10:18:12.128Z,0.98
2019-05-15T10:21:02.027Z,0.88
2019-05-15T10:23:34.682Z,1.00
2019-05-15T10:26:06.900Z,1.10
2019-05-15T10:28:39.129Z,1.10
2019-05-15T10:31:15.762Z,0.98
2019-05-15T10:33:55.200Z,1.00
2019-05-15T10:37:08.414Z,1.00
2019-05-15T10:39:52.060Z,1.00
2019-05-15T10:42:49.789Z,0.93
2019-05-15T10:45:30.525Z,1.10
2019-05-15T10:48:43.770Z,1.20
2019-05-15T10:54:38.095Z,0.90
2019-05-15T10:57:09.004Z,0.90
2019-05-15T10:59:47.820Z,0.93
2019-05-15T11:02:29.097Z,1.10
2019-05-15T11:04:58.403Z,0.70
2019-05-15T11:07:28.464Z,0.90
2019-05-15T11:09:59.826Z,0.82
2019-05-15T11:12:29.390Z,0.80
2019-05-15T11:15:04.570Z,0.82
2019-05-15T11:17:43.178Z,0.82
2019-05-15T11:20:26.572Z,0.80
2019-05-15T11:22:59.185Z,0.78
2019-05-15T11:25:51.942Z,0.70
2019-05-15T11:28:32.115Z,1.00
2019-05-15T11:31:10.857Z,0.72
2019-05-15T11:33:52.817Z,0.80
2019-05-15T11:36:22.463Z,1.00
2019-05-15T11:38:51.712Z,0.82
2019-05-15T11:41:21.217Z,0.85
2019-05-15T11:43:50.451Z,0.93
2019-05-15T11:46:19.509Z,1.00
2019-05-15T11:48:49.877Z,0.90
2019-05-15T11:51:19.480Z,0.90
2019-05-15T11:53:50.274Z,0.65
2019-05-15T11:56:29.343Z,0.93
2019-05-15T11:58:58.192Z,0.90
2019-05-15T12:01:28.785Z,0.60
2019-05-15T12:03:59.459Z,0.80
2019-05-15T12:06:30.041Z,0.80
2019-05-15T12:09:00.691Z,0.95
2019-05-15T12:11:37.023Z,1.00
2019-05-15T12:14:08.499Z,0.90
2019-05-15T12:17:02.433Z,0.90
2019-05-15T12:19:20.954Z,0.85
2019-05-15T12:22:07.562Z,0.88
2019-05-15T12:24:40.496Z,0.80
2019-05-15T12:30:22.189Z,0.65
2019-05-15T12:33:00.193Z,0.78
2019-05-15T12:35:31.831Z,0.95
2019-05-15T12:38:01.419Z,0.80
2019-05-15T13:01:17.182Z,0.72
2019-05-15T13:07:13.891Z,0.90
2019-05-15T13:09:42.010Z,0.62
2019-05-15T13:12:11.370Z,0.80
2019-05-15T13:14:41.838Z,0.70
2019-05-15T13:17:14.142Z,0.78
2019-05-15T13:19:43.467Z,0.90
2019-05-15T13:25:22.944Z,0.90
2019-05-15T13:27:54.611Z,0.80
2019-05-15T13:30:25.782Z,0.90
2019-05-15T13:32:58.734Z,8.73
2019-05-15T13:35:38.031Z,9.75
2019-05-15T13:38:21.678Z,7.87
2019-05-15T13:41:20.379Z,6.47
2019-05-15T13:44:24.172Z,5.58
2019-05-15T13:54:49.218Z,3.95
2019-05-15T13:58:08.762Z,3.98
2019-05-15T14:03:58.630Z,3.75
2019-05-15T14:13:11.696Z,3.72
2019-05-15T14:15:59.645Z,3.05
2019-05-15T14:18:39.398Z,2.47
2019-05-15T14:21:28.559Z,2.60
2019-05-15T14:30:58.847Z,2.10
2019-05-15T14:33:29.112Z,1.90
2019-05-15T14:36:18.390Z,2.10
2019-05-15T14:39:21.026Z,2.08
2019-05-15T14:42:18.436Z,2.20
2019-05-15T14:45:13.649Z,2.08
2019-05-15T14:47:58.089Z,2.35
2019-05-15T14:50:44.988Z,2.02
2019-05-15T14:56:55.511Z,2.12
2019-05-15T14:59:38.184Z,1.80
2019-05-15T15:02:31.989Z,1.65
2019-05-15T15:05:15.186Z,1.80
2019-05-15T15:07:44.953Z,1.80
2019-05-15T15:10:14.305Z,1.70
2019-05-15T15:12:46.388Z,1.47
2019-05-15T15:15:18.122Z,1.90
2019-05-15T15:17:49.243Z,4.10
2019-05-15T15:20:18.826Z,11.43
2019-05-15T15:22:48.701Z,10.68
2019-05-15T15:25:22.332Z,13.40
2019-05-15T15:27:49.327Z,62.90
2019-05-15T15:30:21.315Z,102.32
2019-05-15T15:32:50.696Z,118.13
2019-05-15T15:35:20.298Z,110.10
2019-05-15T15:37:52.736Z,85.07
2019-05-15T15:40:25.271Z,69.67
2019-05-15T15:42:54.602Z,61.28
2019-05-15T15:45:24.889Z,73.02
2019-05-15T15:47:53.744Z,63.95
2019-05-15T15:50:25.189Z,65.92
2019-05-15T15:52:56.409Z,55.60
2019-05-15T15:55:25.750Z,66.02
2019-05-15T15:57:59.243Z,50.90
2019-05-15T16:00:28.835Z,45.80
2019-05-15T16:02:58.382Z,53.52
2019-05-15T16:05:29.066Z,39.50
2019-05-15T16:07:59.183Z,32.87
2019-05-15T16:10:31.794Z,29.27
2019-05-15T16:13:02.074Z,28.70
2019-05-15T16:16:00.104Z,29.67
2019-05-15T16:18:30.655Z,29.67
2019-05-15T16:21:00.078Z,28.45
2019-05-15T16:23:39.043Z,26.30
2019-05-15T16:26:09.220Z,26.90
2019-05-15T16:28:38.909Z,27.02
2019-05-15T16:31:08.254Z,25.17
2019-05-15T16:33:39.028Z,23.52
2019-05-15T16:36:13.123Z,23.95
2019-05-15T16:39:03.692Z,23.07
2019-05-15T16:41:24.457Z,22.48
2019-05-15T16:43:53.900Z,21.68
2019-05-15T16:46:29.691Z,21.70
2019-05-15T16:48:59.938Z,20.92
2019-05-15T16:51:32.214Z,20.30
2019-05-15T16:54:24.343Z,19.27
2019-05-15T16:57:04.316Z,18.95
2019-05-15T16:59:38.801Z,15.45
2019-05-15T17:02:08.776Z,14.30
2019-05-15T17:04:44.212Z,14.20
2019-05-15T17:07:22.852Z,14.90
2019-05-15T17:09:56.079Z,14.93
2019-05-15T17:12:27.831Z,12.98
2019-05-15T17:14:58.304Z,12.40
2019-05-15T17:17:27.716Z,12.95
2019-05-15T17:19:57.928Z,9.85
2019-05-15T17:22:28.824Z,9.95
2019-05-15T17:24:58.390Z,8.47
2019-05-15T17:27:28.898Z,8.70
2019-05-15T17:29:58.502Z,8.63
2019-05-15T17:32:29.050Z,11.33
2019-05-15T17:35:01.685Z,14.93
2019-05-15T17:37:33.915Z,10.53
2019-05-15T17:40:02.996Z,9.80
2019-05-15T17:42:35.215Z,9.53
2019-05-15T17:45:04.432Z,9.33
2019-05-15T17:47:33.976Z,10.90
2019-05-15T17:50:04.452Z,10.00
2019-05-15T17:52:33.503Z,9.90
2019-05-15T17:55:02.727Z,10.20
2019-05-15T17:57:31.840Z,9.70
2019-05-15T18:00:00.839Z,9.58
2019-05-15T18:02:30.074Z,9.48
2019-05-15T18:05:02.905Z,8.75
2019-05-15T18:07:32.288Z,8.58
2019-05-15T18:10:01.235Z,8.03
2019-05-15T18:12:31.206Z,7.97
2019-05-15T18:15:03.269Z,8.20
2019-05-15T18:17:34.227Z,7.17
2019-05-15T18:20:03.705Z,6.40
2019-05-15T18:22:33.033Z,7.25
2019-05-15T18:25:02.434Z,7.47
2019-05-15T18:27:31.697Z,7.20
2019-05-15T18:30:05.380Z,7.05
2019-05-15T18:32:34.481Z,7.10
2019-05-15T18:35:04.120Z,6.08
2019-05-15T18:37:42.248Z,6.72
2019-05-15T18:40:24.884Z,6.50
2019-05-15T18:43:15.294Z,5.85
2019-05-15T18:45:55.537Z,6.40
2019-05-15T18:48:45.179Z,5.92
2019-05-15T18:51:15.217Z,5.90
2019-05-15T18:53:45.027Z,4.95
2019-05-15T18:56:14.117Z,5.72
2019-05-15T18:58:43.251Z,5.97
2019-05-15T19:01:15.114Z,5.67
2019-05-15T19:03:44.299Z,5.12
2019-05-15T19:06:13.597Z,5.28
2019-05-15T19:08:42.997Z,5.03
2019-05-15T19:11:12.193Z,4.72
2019-05-15T19:13:41.256Z,4.60
2019-05-15T19:16:10.994Z,4.72
2019-05-15T19:18:40.216Z,4.30
2019-05-15T19:21:09.711Z,4.35
2019-05-15T19:23:40.463Z,4.33
2019-05-15T19:26:11.770Z,4.40
2019-05-15T19:28:40.147Z,5.00
2019-05-15T19:31:09.108Z,4.08
2019-05-15T19:33:41.144Z,3.83
2019-05-15T19:36:09.146Z,3.97
2019-05-15T19:38:42.960Z,4.17
2019-05-15T19:41:12.676Z,4.12
2019-05-15T19:43:41.682Z,3.83
2019-05-15T19:46:10.775Z,3.62
2019-05-15T19:48:39.792Z,3.40
2019-05-15T19:51:09.129Z,3.37
2019-05-15T19:53:38.369Z,3.40
2019-05-15T19:56:08.415Z,3.72
2019-05-15T19:58:37.631Z,3.35
2019-05-15T20:01:08.212Z,3.20
2019-05-15T20:03:49.711Z,3.27
2019-05-15T20:06:08.391Z,3.42
2019-05-15T20:08:38.556Z,2.80
2019-05-15T20:11:10.284Z,3.30
2019-05-15T20:13:38.516Z,3.60
2019-05-15T20:16:07.480Z,2.90
2019-05-15T20:18:38.597Z,2.77
2019-05-15T20:21:08.851Z,3.33
2019-05-15T20:23:38.274Z,3.25
2019-05-15T20:26:10.620Z,2.85
2019-05-15T20:28:39.916Z,2.67
2019-05-15T20:31:08.892Z,3.30
2019-05-15T20:33:41.130Z,3.08
2019-05-15T20:36:15.384Z,2.70
2019-05-15T20:38:44.336Z,2.40
2019-05-15T20:41:13.241Z,2.80
2019-05-15T20:43:45.526Z,2.83
2019-05-15T20:46:14.467Z,2.98
2019-05-15T20:48:43.877Z,2.90
2019-05-15T20:51:12.991Z,3.00
2019-05-15T20:54:08.388Z,2.58
2019-05-15T20:56:49.081Z,2.60
2019-05-15T20:59:20.183Z,2.40
2019-05-15T21:01:59.358Z,2.43
2019-05-15T21:04:30.967Z,3.17
2019-05-15T21:07:04.363Z,2.20
2019-05-15T21:09:39.709Z,2.52
2019-05-15T21:12:26.423Z,2.10
2019-05-15T21:14:59.300Z,2.75
2019-05-15T21:17:43.314Z,2.62
2019-05-15T21:20:42.232Z,2.40
2019-05-15T21:23:18.131Z,2.37
2019-05-15T21:26:07.737Z,2.40
2019-05-15T21:31:53.473Z,2.27
2019-05-15T21:34:44.452Z,1.95
2019-05-15T21:37:12.373Z,2.17
2019-05-15T21:40:21.930Z,2.27
2019-05-15T21:42:51.516Z,2.33
2019-05-15T21:45:48.832Z,2.10
2019-05-15T21:48:38.227Z,1.85
2019-05-15T21:51:33.913Z,2.33
2019-05-15T21:54:10.025Z,1.90
2019-05-15T21:56:41.320Z,1.90
2019-05-15T21:59:22.113Z,1.85
2019-05-15T22:01:53.258Z,1.70
2019-05-15T22:04:25.550Z,1.98
2019-05-15T22:06:58.489Z,1.95
2019-05-15T22:09:40.100Z,2.02
2019-05-15T22:12:28.649Z,2.00
2019-05-15T22:14:58.246Z,1.62
2019-05-15T22:17:29.332Z,1.82
2019-05-15T22:19:58.813Z,1.77
2019-05-15T22:22:38.649Z,2.00
2019-05-15T22:25:11.233Z,1.72
2019-05-15T22:27:45.941Z,1.90
2019-05-15T22:30:23.083Z,1.50
2019-05-15T22:32:55.367Z,2.00
2019-05-15T22:35:31.747Z,1.45
2019-05-15T22:38:13.140Z,1.50
2019-05-15T22:40:57.663Z,1.80
2019-05-15T22:43:28.848Z,1.50
2019-05-15T22:45:58.963Z,1.60
2019-05-15T22:48:28.819Z,1.42
2019-05-15T22:51:01.475Z,1.47
2019-05-15T22:53:31.114Z,1.40
2019-05-15T22:56:02.316Z,1.62
2019-05-15T22:58:38.688Z,1.62
2019-05-15T23:01:09.409Z,1.35
2019-05-15T23:03:39.587Z,1.52
2019-05-15T23:06:10.370Z,1.70
2019-05-15T23:08:48.909Z,1.60
2019-05-15T23:11:24.760Z,1.40
2019-05-15T23:13:53.952Z,1.50
2019-05-15T23:16:25.454Z,1.60
2019-05-15T23:18:54.735Z,1.30
2019-05-15T23:21:24.258Z,1.60
2019-05-15T23:23:55.655Z,1.32
2019-05-15T23:26:25.221Z,1.50
2019-05-15T23:28:55.134Z,1.40
2019-05-15T23:31:24.357Z,1.27
2019-05-15T23:33:53.738Z,1.30
2019-05-15T23:36:25.237Z,1.30
2019-05-15T23:38:59.812Z,1.35
2019-05-15T23:41:29.153Z,1.40
2019-05-15T23:44:01.898Z,1.37
2019-05-15T23:46:32.571Z,1.20
2019-05-15T23:49:05.694Z,1.22
2019-05-15T23:51:35.201Z,1.60
2019-05-15T23:54:04.717Z,1.30
2019-05-15T23:56:44.887Z,1.22
2019-05-15T23:59:05.284Z,1.12
